Time;durP1;ratioP1;P1;durP2;ratioP2;P2;SDS_P1;SDS_P2;PMS_P1;PMS_P2;Temp;Humidity;BMP_temperature;BMP_pressure;BME280_temperature;BME280_humidity;BME280_pressure;Samples;Min_cycle;Max_cycle;Signal;HPM_P1;HPM_P2
2024/01/04 00:01:19;;;;;;;3.43;1.20;;;;;;;8.31;72.76;94794.78;5067673;28;20178;-67
2024/01/04 00:03:48;;;;;;;7.40;1.77;;;;;;;8.33;72.86;94792.09;5067729;28;20170;-67
2024/01/04 00:06:14;;;;;;;2.10;1.00;;;;;;;8.19;73.08;94780.69;5067649;28;20201;-67
2024/01/04 00:08:39;;;;;;;2.87;1.30;;;;;;;8.18;72.60;94786.88;5066998;28;20509;-67
2024/01/04 00:11:06;;;;;;;4.70;1.23;;;;;;;8.23;72.64;94782.19;5067215;28;20206;-66
2024/01/04 00:13:32;;;;;;;1.70;1.03;;;;;;;8.25;72.13;94790.78;5067193;28;20978;-69
2024/01/04 00:15:58;;;;;;;3.63;1.47;;;;;;;8.27;72.29;94783.69;5067192;28;20440;-71
2024/01/04 00:18:23;;;;;;;2.80;1.30;;;;;;;8.29;71.74;94778.34;5066953;28;20887;-69
2024/01/04 00:20:49;;;;;;;3.90;1.10;;;;;;;8.25;71.10;94775.09;5067807;28;20265;-69
2024/01/04 00:23:14;;;;;;;1.30;0.90;;;;;;;8.32;70.04;94772.97;5067448;28;20185;-67
2024/01/04 00:25:39;;;;;;;3.60;1.10;;;;;;;8.28;70.52;94772.28;5066975;28;20617;-67
2024/01/04 00:28:05;;;;;;;4.13;1.20;;;;;;;8.41;69.65;94776.78;5066647;28;20221;-67
2024/01/04 00:30:30;;;;;;;3.73;1.50;;;;;;;8.44;69.39;94777.47;5066640;28;20206;-65
2024/01/04 00:32:56;;;;;;;3.53;2.57;;;;;;;8.42;69.17;94771.50;5066776;28;20174;-67
2024/01/04 00:35:22;;;;;;;3.00;2.00;;;;;;;8.46;68.56;94772.16;5067013;28;20271;-67
2024/01/04 00:37:48;;;;;;;6.20;1.47;;;;;;;8.55;68.55;94774.19;5065987;28;20186;-67
2024/01/04 00:40:13;;;;;;;2.37;1.23;;;;;;;8.40;68.75;94780.34;5066662;28;20448;-68
2024/01/04 00:42:39;;;;;;;4.77;1.27;;;;;;;8.53;68.67;94778.69;5066315;28;20470;-69
2024/01/04 00:45:05;;;;;;;3.40;1.23;;;;;;;8.46;68.47;94777.38;5064610;28;20194;-66
2024/01/04 00:47:30;;;;;;;2.70;1.10;;;;;;;8.53;68.72;94791.75;5066355;28;20198;-66
2024/01/04 00:49:55;;;;;;;3.30;1.53;;;;;;;8.62;67.40;94792.94;5066442;28;20170;-66
2024/01/04 00:52:21;;;;;;;2.00;1.20;;;;;;;8.62;67.54;94785.97;5065606;28;20925;-67
2024/01/04 00:54:46;;;;;;;4.20;1.33;;;;;;;8.56;68.12;94781.09;5066660;28;20198;-67
2024/01/04 00:57:11;;;;;;;2.20;1.37;;;;;;;8.57;67.75;94788.00;5065796;28;20684;-67
2024/01/04 00:59:37;;;;;;;1.57;1.00;;;;;;;8.56;67.17;94793.34;5066175;28;20183;-68
2024/01/04 01:02:02;;;;;;;3.23;2.73;;;;;;;8.47;68.13;94789.50;5075953;28;20177;-68
2024/01/04 01:04:28;;;;;;;2.57;1.27;;;;;;;8.48;67.56;94793.81;5075137;28;20173;-68
2024/01/04 01:06:54;;;;;;;2.73;1.20;;;;;;;8.44;67.34;94790.53;5073916;28;20254;-66
2024/01/04 01:09:19;;;;;;;1.60;0.97;;;;;;;8.54;67.08;94806.50;5066009;28;20435;-66
2024/01/04 01:11:45;;;;;;;1.10;0.77;;;;;;;8.53;67.51;94802.22;5066003;28;20263;-67
2024/01/04 01:14:10;;;;;;;2.63;1.00;;;;;;;8.47;67.32;94802.56;5066375;28;20174;-69
2024/01/04 01:16:36;;;;;;;3.63;1.17;;;;;;;8.47;68.33;94808.63;5066290;28;20317;-67
2024/01/04 01:19:02;;;;;;;2.93;1.20;;;;;;;8.46;68.23;94814.81;5065657;28;20181;-68
2024/01/04 01:21:28;;;;;;;3.70;1.20;;;;;;;8.55;67.67;94809.94;5066156;28;20598;-68
2024/01/04 01:23:53;;;;;;;1.27;0.90;;;;;;;8.62;67.29;94809.50;5065658;28;20417;-67
2024/01/04 01:26:18;;;;;;;1.20;0.80;;;;;;;8.57;67.03;94810.69;5065940;28;20190;-68
2024/01/04 01:28:44;;;;;;;3.47;1.13;;;;;;;8.43;67.76;94816.75;5065401;28;20213;-67
2024/01/04 01:31:09;;;;;;;2.40;1.20;;;;;;;8.53;67.30;94825.75;5065698;28;20170;-67
2024/01/04 01:33:34;;;;;;;3.10;0.90;;;;;;;8.55;66.88;94817.78;5065083;28;20488;-66
2024/01/04 01:36:02;;;;;;;1.53;1.20;;;;;;;8.61;66.73;94818.25;5065570;28;20262;-68
2024/01/04 01:38:28;;;;;;;2.97;1.17;;;;;;;8.58;66.43;94812.38;5065457;28;20177;-67
2024/01/04 01:40:53;;;;;;;1.30;0.90;;;;;;;8.60;67.07;94813.13;5065679;28;20405;-70
2024/01/04 01:43:19;;;;;;;2.57;1.13;;;;;;;8.57;66.66;94810.69;5065993;28;20170;-69
2024/01/04 01:45:45;;;;;;;3.83;0.83;;;;;;;8.56;66.51;94809.84;5065755;28;20247;-69
2024/01/04 01:48:14;;;;;;;3.80;1.07;;;;;;;8.59;67.27;94820.13;5065627;28;20197;-67
2024/01/04 01:50:40;;;;;;;3.23;0.93;;;;;;;8.53;66.50;94812.66;5065194;28;20455;-67
2024/01/04 01:53:07;;;;;;;3.73;0.97;;;;;;;8.63;65.99;94818.16;5065588;28;20497;-67
2024/01/04 01:55:32;;;;;;;2.33;1.00;;;;;;;8.46;67.25;94824.44;5065924;28;20949;-68
2024/01/04 01:57:58;;;;;;;2.20;1.10;;;;;;;8.53;66.57;94822.25;5065397;28;20483;-69
2024/01/04 02:00:24;;;;;;;7.40;1.10;;;;;;;8.53;67.04;94817.91;5065228;28;20181;-67
2024/01/04 02:02:50;;;;;;;3.27;1.00;;;;;;;8.48;66.88;94825.19;5065809;28;20900;-68
2024/01/04 02:05:18;;;;;;;1.30;0.90;;;;;;;8.50;66.55;94835.53;5065064;28;20330;-68
2024/01/04 02:07:45;;;;;;;1.60;1.00;;;;;;;8.43;66.78;94843.75;5065166;28;20290;-68
2024/01/04 02:10:11;;;;;;;4.30;1.20;;;;;;;8.50;66.51;94849.44;5066507;28;20420;-67
2024/01/04 02:12:36;;;;;;;2.63;1.03;;;;;;;8.37;66.74;94840.63;5068555;28;20438;-67
2024/01/04 02:15:01;;;;;;;2.03;1.13;;;;;;;8.32;66.90;94845.31;5067638;28;20529;-69
2024/01/04 02:17:28;;;;;;;2.03;1.00;;;;;;;8.42;66.25;94849.91;5069012;28;20166;-66
2024/01/04 02:19:56;;;;;;;1.10;0.90;;;;;;;8.54;66.60;94850.09;5068658;28;20224;-68
2024/01/04 02:22:21;;;;;;;2.10;0.97;;;;;;;8.45;65.86;94854.09;5068934;28;20484;-68
2024/01/04 02:24:46;;;;;;;2.20;1.10;;;;;;;8.47;65.56;94855.69;5069437;28;20511;-68
2024/01/04 02:27:13;;;;;;;3.60;1.23;;;;;;;8.59;65.56;94858.50;5069066;28;20209;-68
2024/01/04 02:29:38;;;;;;;1.83;0.70;;;;;;;8.41;65.96;94868.28;5077862;28;20193;-66
2024/01/04 02:32:04;;;;;;;4.07;1.43;;;;;;;8.32;66.39;94867.06;5080328;28;20405;-66
2024/01/04 02:34:30;;;;;;;2.30;0.97;;;;;;;8.35;65.63;94863.41;5079957;28;20166;-66
2024/01/04 02:36:55;;;;;;;1.53;0.97;;;;;;;8.34;65.99;94862.56;5080922;28;20220;-67
2024/01/04 02:39:21;;;;;;;2.83;1.70;;;;;;;8.38;66.04;94868.44;5083585;28;20880;-67
2024/01/04 02:41:47;;;;;;;1.37;1.00;;;;;;;8.30;65.54;94865.47;5085199;28;20206;-67
2024/01/04 02:44:12;;;;;;;3.57;1.13;;;;;;;8.30;66.04;94868.91;5072909;28;20182;-66
2024/01/04 02:46:38;;;;;;;9.10;1.53;;;;;;;8.35;65.45;94873.88;5068502;28;20432;-67
2024/01/04 02:49:03;;;;;;;7.53;1.87;;;;;;;8.47;64.94;94876.59;5068500;28;20204;-68
2024/01/04 02:51:29;;;;;;;3.40;1.50;;;;;;;8.39;65.47;94875.38;5069085;28;20202;-68
2024/01/04 02:53:54;;;;;;;6.30;1.40;;;;;;;8.40;65.43;94877.91;5068718;28;20178;-67
2024/01/04 02:56:19;;;;;;;8.37;1.80;;;;;;;8.28;66.44;94886.44;5067964;28;20190;-66
2024/01/04 02:58:45;;;;;;;2.33;1.40;;;;;;;8.31;66.97;94885.44;5067944;28;20637;-70
2024/01/04 03:01:11;;;;;;;2.40;1.10;;;;;;;8.31;67.54;94893.25;5068407;28;20174;-65
2024/01/04 03:03:36;;;;;;;3.60;1.20;;;;;;;8.25;67.33;94892.69;5067984;28;20173;-66
2024/01/04 03:06:02;;;;;;;3.87;1.30;;;;;;;8.26;68.42;94888.31;5068319;28;20439;-67
2024/01/04 03:08:27;;;;;;;3.37;0.90;;;;;;;8.11;69.34;94891.84;5067835;28;20315;-68
2024/01/04 03:10:53;;;;;;;3.00;0.90;;;;;;;8.09;69.13;94894.53;5068025;28;20968;-66
2024/01/04 03:13:20;;;;;;;2.80;1.40;;;;;;;8.11;69.44;94900.50;5067989;28;20178;-67
2024/01/04 03:15:45;;;;;;;2.90;1.23;;;;;;;8.20;69.39;94894.75;5067776;28;20194;-68
2024/01/04 03:18:11;;;;;;;3.80;1.17;;;;;;;8.17;69.21;94892.31;5068153;28;20405;-66
2024/01/04 03:20:37;;;;;;;2.60;1.07;;;;;;;8.20;69.48;94896.53;5068356;28;20255;-66
2024/01/04 03:23:03;;;;;;;3.47;1.20;;;;;;;8.02;70.80;94898.44;5067766;28;20517;-67
2024/01/04 03:25:28;;;;;;;2.27;0.90;;;;;;;8.15;70.86;94906.38;5067678;28;20428;-67
2024/01/04 03:27:53;;;;;;;3.40;1.37;;;;;;;8.03;70.88;94900.09;5067736;28;20305;-68
2024/01/04 03:30:19;;;;;;;4.20;1.30;;;;;;;8.00;70.92;94905.50;5067351;28;20175;-67
2024/01/04 03:32:45;;;;;;;1.67;1.00;;;;;;;8.09;70.56;94901.53;5067751;28;20178;-66
2024/01/04 03:35:10;;;;;;;3.20;1.13;;;;;;;8.11;71.63;94910.13;5067915;28;20440;-66
2024/01/04 03:37:35;;;;;;;1.73;1.03;;;;;;;8.11;71.13;94908.34;5061053;28;20265;-66
2024/01/04 03:40:01;;;;;;;2.53;1.00;;;;;;;8.09;70.99;94909.38;5066623;28;20178;-66
2024/01/04 03:42:26;;;;;;;3.70;1.27;;;;;;;8.20;70.30;94918.28;5063506;28;20177;-68
2024/01/04 03:44:52;;;;;;;6.63;1.20;;;;;;;8.13;70.98;94923.94;5063113;28;20282;-67
2024/01/04 03:47:17;;;;;;;2.80;1.00;;;;;;;8.05;70.72;94929.59;5075024;28;20226;-67
2024/01/04 03:49:42;;;;;;;1.50;0.90;;;;;;;8.01;70.85;94941.16;5066686;28;20264;-67
2024/01/04 03:52:08;;;;;;;1.80;0.93;;;;;;;8.09;70.93;94951.16;5066764;28;20519;-67
2024/01/04 03:54:33;;;;;;;1.53;0.93;;;;;;;8.09;70.67;94957.22;5067127;28;20264;-69
2024/01/04 03:56:59;;;;;;;1.00;0.80;;;;;;;8.20;71.60;94961.84;5065496;28;20166;-66
2024/01/04 03:59:24;;;;;;;1.77;1.00;;;;;;;8.17;71.56;94978.56;5067487;28;20170;-65
2024/01/04 04:01:50;;;;;;;1.43;1.00;;;;;;;8.12;72.51;94980.56;5067630;28;20177;-67
2024/01/04 04:04:15;;;;;;;1.27;0.90;;;;;;;7.98;72.96;94985.72;5067066;28;20205;-66
2024/01/04 04:06:41;;;;;;;7.07;6.47;;;;;;;8.01;73.26;94991.63;5067499;28;20201;-67
2024/01/04 04:09:07;;;;;;;2.23;1.60;;;;;;;7.90;74.19;94988.78;5067443;28;20229;-66
2024/01/04 04:11:33;;;;;;;2.67;1.17;;;;;;;7.94;74.11;94999.91;5067792;28;20837;-68
2024/01/04 04:13:58;;;;;;;2.10;1.07;;;;;;;7.81;74.52;95005.78;5067948;28;20404;-67
2024/01/04 04:16:24;;;;;;;3.20;1.33;;;;;;;7.87;74.66;95006.41;5068094;28;20498;-65
2024/01/04 04:18:49;;;;;;;2.73;1.27;;;;;;;7.89;75.33;94999.31;5068478;28;20175;-66
2024/01/04 04:21:24;;;;;;;4.80;1.50;;;;;;;7.82;75.22;94997.06;5067335;28;20170;-67
2024/01/04 04:23:50;;;;;;;2.83;1.10;;;;;;;7.82;75.68;94996.22;5067811;28;20193;-65
2024/01/04 04:26:20;;;;;;;2.00;1.50;;;;;;;7.98;75.46;94994.41;5066979;28;20934;-66
2024/01/04 04:28:46;;;;;;;3.70;1.27;;;;;;;7.95;74.34;94998.97;5067311;28;20458;-66
2024/01/04 04:31:16;;;;;;;1.83;1.00;;;;;;;7.81;75.67;94986.69;5067932;28;20409;-68
2024/01/04 04:33:44;;;;;;;4.53;1.60;;;;;;;7.91;74.97;94985.22;5067177;28;20404;-67
2024/01/04 04:36:10;;;;;;;1.10;0.80;;;;;;;7.97;74.51;94984.91;5068136;28;20435;-66
2024/01/04 04:38:36;;;;;;;2.80;1.17;;;;;;;7.88;74.55;94990.63;5067523;28;20783;-66
2024/01/04 04:41:05;;;;;;;5.67;1.50;;;;;;;7.79;74.72;94991.16;5067599;28;20412;-68
2024/01/04 04:43:32;;;;;;;2.20;0.90;;;;;;;7.82;74.74;94999.66;5068110;28;20664;-66
2024/01/04 04:45:57;;;;;;;1.57;0.90;;;;;;;7.88;74.68;94998.47;5067576;28;20933;-66
2024/01/04 04:48:23;;;;;;;1.67;0.90;;;;;;;7.81;74.69;94997.13;5067700;28;20456;-66
2024/01/04 04:50:53;;;;;;;4.00;1.10;;;;;;;7.82;75.73;94999.66;5067785;28;20197;-65
2024/01/04 04:53:18;;;;;;;2.60;1.00;;;;;;;7.83;75.25;95003.09;5067483;28;20415;-70
2024/01/04 04:55:44;;;;;;;1.20;0.77;;;;;;;7.66;76.54;95008.44;5067250;28;20432;-66
2024/01/04 04:58:09;;;;;;;1.27;0.90;;;;;;;7.61;76.06;95004.28;5067255;28;20722;-67
2024/01/04 05:00:35;;;;;;;1.10;0.70;;;;;;;7.81;74.60;95005.78;5067787;28;20846;-68
2024/01/04 05:03:00;;;;;;;2.30;1.00;;;;;;;7.75;75.52;95006.16;5066739;28;20667;-67
2024/01/04 05:05:26;;;;;;;1.30;0.97;;;;;;;7.86;74.62;95016.00;5066933;28;20751;-68
2024/01/04 05:07:51;;;;;;;3.20;1.27;;;;;;;7.75;75.09;95011.38;5067659;28;20208;-68
2024/01/04 05:10:17;;;;;;;3.60;1.30;;;;;;;7.81;74.82;95020.63;5068157;28;20178;-68
2024/01/04 05:12:42;;;;;;;1.87;0.90;;;;;;;7.77;75.31;95035.63;5070050;28;20177;-69
2024/01/04 05:15:08;;;;;;;1.47;0.90;;;;;;;7.82;75.52;95028.38;5072867;28;20189;-67
2024/01/04 05:17:33;;;;;;;1.40;0.90;;;;;;;7.85;75.55;95028.22;5081525;28;20176;-67
2024/01/04 05:19:59;;;;;;;2.10;1.10;;;;;;;7.88;75.29;95032.41;5091440;28;20181;-66
2024/01/04 05:22:24;;;;;;;1.40;0.83;;;;;;;7.92;74.74;95030.50;5081128;28;20217;-67
2024/01/04 05:24:49;;;;;;;2.40;1.03;;;;;;;7.89;74.53;95028.91;5071890;28;20196;-66
2024/01/04 05:27:15;;;;;;;3.43;1.30;;;;;;;7.89;74.66;95030.66;5051495;28;20301;-67
2024/01/04 05:29:40;;;;;;;3.40;1.30;;;;;;;7.85;74.95;95030.00;5074830;28;20170;-67
2024/01/04 05:32:05;;;;;;;2.27;1.20;;;;;;;7.88;74.38;95042.03;5080744;28;20220;-68
2024/01/04 05:34:32;;;;;;;3.57;1.43;;;;;;;7.94;73.41;95044.31;5079979;28;20166;-68
2024/01/04 05:36:58;;;;;;;2.87;1.10;;;;;;;7.92;73.42;95056.63;5081239;28;20208;-68
2024/01/04 05:39:24;;;;;;;3.10;1.60;;;;;;;7.88;73.49;95057.72;5080531;28;20431;-69
2024/01/04 05:41:50;;;;;;;1.47;1.00;;;;;;;7.80;74.07;95066.81;5072941;28;20404;-65
2024/01/04 05:44:15;;;;;;;2.40;1.07;;;;;;;7.94;72.53;95055.59;5066029;28;20732;-68
2024/01/04 05:46:41;;;;;;;1.37;1.00;;;;;;;7.90;72.94;95054.06;5053727;28;20203;-65
2024/01/04 05:49:06;;;;;;;2.20;1.23;;;;;;;7.90;72.06;95055.84;5049746;28;21110;-68
2024/01/04 05:51:31;;;;;;;1.50;1.03;;;;;;;7.89;72.61;95069.81;5048534;28;20198;-71
2024/01/04 05:53:57;;;;;;;2.07;1.10;;;;;;;7.96;71.53;95079.00;5049261;28;20209;-68
2024/01/04 05:56:22;;;;;;;6.03;1.10;;;;;;;7.92;71.69;95082.75;5048914;28;20274;-67
2024/01/04 05:58:48;;;;;;;1.93;1.00;;;;;;;7.91;71.87;95094.94;5048843;28;20229;-69
2024/01/04 06:01:14;;;;;;;6.30;1.40;;;;;;;7.75;72.55;95102.78;5049230;28;20699;-69
2024/01/04 06:03:40;;;;;;;2.80;1.03;;;;;;;7.70;73.41;95094.34;5059695;28;20177;-66
2024/01/04 06:06:06;;;;;;;3.70;1.50;;;;;;;7.81;72.37;95098.97;5066806;28;20946;-68
2024/01/04 06:08:32;;;;;;;7.03;1.33;;;;;;;7.72;72.50;95110.75;5058037;28;20932;-68
2024/01/04 06:10:57;;;;;;;2.70;1.30;;;;;;;7.65;73.31;95122.44;5056609;28;20435;-68
2024/01/04 06:13:26;;;;;;;1.80;1.30;;;;;;;7.85;72.45;95121.41;5062140;28;20264;-67
2024/01/04 06:15:52;;;;;;;8.53;1.20;;;;;;;7.74;72.53;95121.97;5069005;28;20213;-66
2024/01/04 06:18:18;;;;;;;1.83;1.20;;;;;;;7.78;72.01;95127.88;5066598;28;20408;-67
2024/01/04 06:20:43;;;;;;;1.73;1.10;;;;;;;7.96;71.84;95146.94;5059447;28;20415;-67
2024/01/04 06:23:09;;;;;;;6.50;1.70;;;;;;;7.93;71.78;95144.50;5051681;28;20965;-67
2024/01/04 06:25:34;;;;;;;2.60;1.20;;;;;;;7.86;71.10;95136.13;5071324;28;20189;-67
2024/01/04 06:28:00;;;;;;;1.60;1.10;;;;;;;7.95;71.12;95135.66;5069330;28;20199;-66
2024/01/04 06:30:25;;;;;;;2.40;1.10;;;;;;;7.75;72.41;95147.16;5059985;28;20170;-67
2024/01/04 06:32:52;;;;;;;1.70;1.40;;;;;;;7.72;72.06;95151.69;5065271;28;20182;-65
2024/01/04 06:35:17;;;;;;;2.03;0.93;;;;;;;7.91;72.33;95160.22;5067900;28;20186;-66
2024/01/04 06:37:43;;;;;;;3.57;1.40;;;;;;;7.87;72.42;95155.28;5073714;28;21266;-67
2024/01/04 06:40:10;;;;;;;2.30;1.00;;;;;;;7.88;71.38;95164.78;5069734;28;20172;-68
2024/01/04 06:42:36;;;;;;;3.83;1.20;;;;;;;7.97;71.20;95166.91;5057241;28;20190;-66
2024/01/04 06:45:05;;;;;;;4.10;1.10;;;;;;;7.89;71.44;95167.34;5061246;28;20476;-68
2024/01/04 06:47:31;;;;;;;2.57;1.40;;;;;;;7.70;72.23;95177.91;5051325;28;20843;-65
2024/01/04 06:49:56;;;;;;;1.77;1.67;;;;;;;7.67;71.83;95170.22;5056029;28;20518;-66
2024/01/04 06:52:22;;;;;;;3.50;1.30;;;;;;;7.67;72.09;95166.75;5052108;28;20218;-65
2024/01/04 06:54:47;;;;;;;1.73;1.20;;;;;;;7.92;71.16;95158.50;5052638;28;20277;-66
2024/01/04 06:57:13;;;;;;;1.70;0.87;;;;;;;7.88;70.73;95162.19;5061543;28;20671;-67
2024/01/04 06:59:38;;;;;;;1.60;0.90;;;;;;;7.74;71.34;95170.75;5060401;28;20189;-66
2024/01/04 07:02:04;;;;;;;1.57;1.10;;;;;;;7.83;70.70;95171.09;5048318;28;20253;-65
2024/01/04 07:04:30;;;;;;;1.67;1.17;;;;;;;7.83;70.64;95181.53;5063815;28;20652;-65
2024/01/04 07:06:56;;;;;;;2.33;1.20;;;;;;;7.72;71.90;95186.47;5074808;28;20427;-65
2024/01/04 07:09:21;;;;;;;3.30;1.17;;;;;;;7.73;71.44;95185.56;5066447;28;20413;-66
2024/01/04 07:11:47;;;;;;;2.30;1.30;;;;;;;7.76;71.86;95193.22;5065900;28;20249;-66
2024/01/04 07:14:12;;;;;;;1.83;1.10;;;;;;;7.72;71.22;95199.53;5063331;28;20265;-65
2024/01/04 07:16:43;;;;;;;2.30;1.30;;;;;;;7.75;71.38;95199.41;5076135;28;20208;-65
2024/01/04 07:19:08;;;;;;;1.63;1.20;;;;;;;7.78;71.01;95201.00;5074469;28;20192;-66
2024/01/04 07:21:33;;;;;;;8.93;1.63;;;;;;;7.68;72.26;95203.25;5078240;28;20918;-65
2024/01/04 07:23:59;;;;;;;3.10;1.10;;;;;;;7.74;71.33;95196.84;5086714;28;20166;-67
2024/01/04 07:26:24;;;;;;;1.90;1.10;;;;;;;7.62;72.06;95203.56;5076615;28;20535;-64
2024/01/04 07:28:50;;;;;;;5.90;1.40;;;;;;;7.68;72.04;95198.03;5071218;28;20225;-66
2024/01/04 07:31:15;;;;;;;4.23;1.20;;;;;;;7.74;71.75;95208.13;5086191;28;20252;-65
2024/01/04 07:33:40;;;;;;;1.70;1.27;;;;;;;7.80;70.78;95212.22;5068143;28;20175;-66
2024/01/04 07:36:06;;;;;;;2.00;1.10;;;;;;;8.03;69.51;95214.47;5075508;28;20204;-66
2024/01/04 07:38:34;;;;;;;2.57;1.00;;;;;;;8.38;68.95;95206.47;5038271;28;1127584;-66
2024/01/04 07:40:59;;;;;;;2.77;2.03;;;;;;;8.26;69.45;95213.22;5064466;28;20253;-64
2024/01/04 07:43:25;;;;;;;1.40;1.10;;;;;;;8.12;69.45;95223.56;5068189;28;20442;-66
2024/01/04 07:45:50;;;;;;;2.90;1.30;;;;;;;8.02;70.20;95224.97;5072432;28;20204;-67
2024/01/04 07:48:15;;;;;;;2.03;1.10;;;;;;;8.72;68.44;95224.72;5071239;28;20205;-66
2024/01/04 07:50:41;;;;;;;2.43;1.40;;;;;;;9.80;63.04;95208.94;5073979;28;20262;-66
2024/01/04 07:53:06;;;;;;;3.10;1.20;;;;;;;9.07;65.12;95218.41;5076710;28;20192;-67
2024/01/04 07:55:32;;;;;;;2.57;1.10;;;;;;;8.87;65.68;95223.91;5074730;28;20210;-67
2024/01/04 07:57:58;;;;;;;2.63;1.37;;;;;;;8.84;66.46;95232.75;5071959;28;20261;-66
2024/01/04 08:00:23;;;;;;;7.67;2.40;;;;;;;8.99;65.85;95225.81;5067654;28;20430;-64
2024/01/04 08:02:49;;;;;;;7.90;1.50;;;;;;;9.09;64.78;95236.59;5076218;28;20180;-67
2024/01/04 08:05:14;;;;;;;3.80;1.30;;;;;;;8.88;65.51;95244.75;5067506;28;20281;-64
2024/01/04 08:07:40;;;;;;;17.10;2.07;;;;;;;9.56;63.69;95240.88;5066564;28;20194;-66
2024/01/04 08:10:08;;;;;;;5.63;1.13;;;;;;;10.04;61.25;95236.31;5068132;28;20382;-67
2024/01/04 08:12:34;;;;;;;2.90;1.53;;;;;;;9.53;63.18;95249.75;5069337;28;20431;-66
2024/01/04 08:14:59;;;;;;;2.10;1.10;;;;;;;9.06;64.53;95253.31;5068922;28;20440;-66
2024/01/04 08:17:25;;;;;;;1.50;1.20;;;;;;;8.88;65.93;95262.19;5067824;28;20307;-68
2024/01/04 08:19:50;;;;;;;2.63;0.97;;;;;;;9.17;64.60;95271.06;5068786;28;20565;-66
2024/01/04 08:22:15;;;;;;;1.40;0.90;;;;;;;9.13;65.33;95264.28;5079971;28;20177;-67
2024/01/04 08:24:41;;;;;;;5.10;1.03;;;;;;;9.00;65.71;95274.63;5079569;28;20319;-67
2024/01/04 08:27:07;;;;;;;2.17;1.10;;;;;;;8.69;66.52;95273.69;5081857;28;20213;-67
2024/01/04 08:29:32;;;;;;;2.17;1.17;;;;;;;8.67;66.48;95270.31;5085170;28;20425;-66
2024/01/04 08:31:58;;;;;;;3.33;1.70;;;;;;;8.51;67.54;95272.06;5081445;28;20197;-69
2024/01/04 08:34:23;;;;;;;2.47;1.60;;;;;;;8.42;67.90;95272.56;5079272;28;20170;-66
2024/01/04 08:36:49;;;;;;;2.00;1.20;;;;;;;8.32;68.15;95268.72;5080900;28;20182;-67
2024/01/04 08:39:14;;;;;;;1.57;1.10;;;;;;;8.51;67.31;95274.69;5080477;28;20184;-67
2024/01/04 08:41:39;;;;;;;2.30;2.00;;;;;;;8.88;67.03;95277.91;5087537;28;20260;-67
2024/01/04 08:44:05;;;;;;;1.80;1.10;;;;;;;11.10;59.87;95260.34;5087904;28;20180;-66
2024/01/04 08:46:30;;;;;;;1.53;1.20;;;;;;;12.88;53.74;95267.63;5073095;28;20543;-67
2024/01/04 08:48:56;;;;;;;1.90;0.97;;;;;;;13.06;52.94;95260.19;5065241;28;20263;-68
2024/01/04 08:51:21;;;;;;;2.70;1.20;;;;;;;12.27;54.45;95259.59;5067357;28;20205;-68
2024/01/04 08:53:49;;;;;;;2.80;1.10;;;;;;;11.94;56.20;95269.78;5066911;28;20177;-65
2024/01/04 08:56:14;;;;;;;2.23;1.13;;;;;;;12.15;54.76;95259.59;5068080;28;20247;-67
2024/01/04 08:58:40;;;;;;;3.30;1.83;;;;;;;11.16;58.17;95268.69;5068103;28;20412;-65
2024/01/04 09:01:05;;;;;;;7.10;1.77;;;;;;;11.89;56.44;95277.97;5064091;28;20244;-68
2024/01/04 09:03:31;;;;;;;8.80;1.90;;;;;;;11.85;56.51;95276.44;5057369;28;21179;-67
2024/01/04 09:05:56;;;;;;;3.63;1.20;;;;;;;11.77;56.37;95276.97;5070539;28;20297;-66
2024/01/04 09:08:22;;;;;;;2.37;1.20;;;;;;;11.63;56.44;95275.25;5072959;28;20979;-69
2024/01/04 09:10:47;;;;;;;4.50;1.53;;;;;;;12.68;53.41;95268.16;5061783;28;20272;-67
2024/01/04 09:13:13;;;;;;;3.30;1.60;;;;;;;13.65;50.72;95272.59;5074735;28;20175;-66
2024/01/04 09:15:38;;;;;;;3.93;1.37;;;;;;;12.32;53.93;95280.31;5073874;28;20216;-66
2024/01/04 09:18:04;;;;;;;2.83;1.23;;;;;;;11.51;57.22;95291.84;5083212;28;20535;-68
2024/01/04 09:20:30;;;;;;;4.07;1.60;;;;;;;11.49;57.12;95282.38;5086688;28;20170;-66
2024/01/04 09:22:55;;;;;;;4.30;1.50;;;;;;;11.13;58.19;95286.44;5078576;28;20180;-65
2024/01/04 09:25:20;;;;;;;4.93;1.77;;;;;;;11.93;56.43;95289.97;5077961;28;20266;-66
2024/01/04 09:27:46;;;;;;;5.40;1.50;;;;;;;11.59;56.89;95291.31;5072443;28;20209;-67
2024/01/04 09:30:11;;;;;;;3.90;1.60;;;;;;;10.94;58.65;95305.13;5083999;28;20176;-66
2024/01/04 09:32:37;;;;;;;3.87;1.90;;;;;;;10.71;60.54;95303.94;5058783;28;21129;-66
2024/01/04 09:35:03;;;;;;;7.00;2.00;;;;;;;10.62;60.98;95304.50;5055566;28;20763;-68
2024/01/04 09:37:28;;;;;;;9.43;4.20;;;;;;;12.12;56.16;95299.22;5072129;28;20167;-64
2024/01/04 09:39:53;;;;;;;2.17;1.53;;;;;;;13.51;51.47;95299.13;5070408;28;20189;-64
2024/01/04 09:42:22;;;;;;;4.07;1.43;;;;;;;13.65;50.47;95298.97;5066837;28;20177;-66
2024/01/04 09:44:49;;;;;;;7.93;1.30;;;;;;;13.88;49.95;95293.78;5066385;28;20185;-67
2024/01/04 09:47:14;;;;;;;1.30;0.90;;;;;;;13.81;50.35;95295.22;5069569;28;20467;-65
2024/01/04 09:49:42;;;;;;;4.90;1.57;;;;;;;13.31;51.04;95304.06;5079559;28;20408;-66
2024/01/04 09:52:11;;;;;;;2.20;1.00;;;;;;;13.95;49.94;95300.28;5086459;28;20250;-66
2024/01/04 09:54:39;;;;;;;5.47;1.17;;;;;;;13.28;50.57;95312.22;5077561;28;20427;-66
2024/01/04 09:57:08;;;;;;;3.43;1.60;;;;;;;12.98;52.49;95319.63;5071100;28;20460;-66
2024/01/04 09:59:34;;;;;;;3.03;1.93;;;;;;;12.29;54.18;95320.00;5078659;28;20415;-65
2024/01/04 10:02:02;;;;;;;10.70;2.23;;;;;;;12.12;54.58;95333.41;5087400;28;20415;-67
2024/01/04 10:04:28;;;;;;;6.80;2.10;;;;;;;11.70;55.85;95336.16;5089401;28;20848;-65
2024/01/04 10:06:57;;;;;;;5.87;1.60;;;;;;;11.40;56.99;95344.22;5071203;28;20539;-68
2024/01/04 10:09:42;;;;;;;4.40;1.90;;;;;;;11.20;58.09;95338.47;5078233;28;20238;-67
2024/01/04 10:12:08;;;;;;;2.07;1.00;;;;;;;11.25;57.15;95339.97;5069218;28;20495;-66
2024/01/04 10:14:35;;;;;;;7.10;1.43;;;;;;;11.36;57.50;95337.47;5078494;28;20404;-68
2024/01/04 10:17:04;;;;;;;2.70;1.50;;;;;;;11.78;55.94;95333.84;5073750;28;20166;-67
2024/01/04 10:19:32;;;;;;;6.10;1.80;;;;;;;12.01;55.96;95331.53;5073773;28;20522;-68
2024/01/04 10:22:01;;;;;;;6.30;2.00;;;;;;;12.00;54.22;95330.69;5080031;28;20415;-68
2024/01/04 10:24:28;;;;;;;3.27;1.30;;;;;;;11.93;54.48;95321.53;5079666;28;20428;-68
2024/01/04 10:26:57;;;;;;;9.23;1.70;;;;;;;11.99;53.34;95321.09;5083465;28;20427;-69
2024/01/04 10:29:30;;;;;;;4.67;1.73;;;;;;;12.44;52.43;95316.28;5087123;28;20989;-66
2024/01/04 10:32:00;;;;;;;2.83;1.77;;;;;;;12.48;51.17;95316.94;5090604;28;20759;-69
2024/01/04 10:34:26;;;;;;;6.20;1.67;;;;;;;12.55;50.18;95312.94;5083703;28;20444;-67
2024/01/04 10:36:52;;;;;;;3.20;1.10;;;;;;;12.46;50.28;95309.16;5073476;28;20882;-67
2024/01/04 10:39:20;;;;;;;1.63;0.90;;;;;;;12.13;50.82;95304.41;5088404;28;20430;-67
2024/01/04 10:42:01;;;;;;;1.50;1.00;;;;;;;12.03;50.29;95308.59;5090638;28;20419;-68
2024/01/04 10:44:27;;;;;;;2.97;1.70;;;;;;;11.85;50.60;95313.25;5076315;28;20493;-65
2024/01/04 10:47:00;;;;;;;13.20;2.43;;;;;;;11.68;51.04;95310.91;5071057;28;20900;-65
2024/01/04 10:49:26;;;;;;;15.97;2.37;;;;;;;11.69;50.78;95305.53;5080738;28;20236;-68
2024/01/04 10:51:53;;;;;;;1.50;1.40;;;;;;;11.58;51.64;95306.25;5090010;28;20412;-68
2024/01/04 10:54:20;;;;;;;2.80;1.27;;;;;;;11.41;52.16;95322.28;5073261;28;20217;-67
2024/01/04 10:56:46;;;;;;;4.20;1.40;;;;;;;11.27;53.24;95317.03;5077307;28;20456;-67
2024/01/04 10:59:12;;;;;;;2.77;1.20;;;;;;;11.21;53.94;95324.38;5071374;28;20444;-65
2024/01/04 11:01:41;;;;;;;3.43;1.77;;;;;;;11.11;54.60;95333.78;5081564;28;20446;-66
2024/01/04 11:04:07;;;;;;;3.63;1.40;;;;;;;11.06;55.05;95335.03;5074707;28;20182;-68
2024/01/04 11:06:39;;;;;;;6.00;1.90;;;;;;;10.92;55.84;95335.88;5070502;28;20876;-67
2024/01/04 11:09:08;;;;;;;2.50;1.17;;;;;;;10.98;56.57;95340.75;5071309;28;20198;-68
2024/01/04 11:11:38;;;;;;;3.80;2.27;;;;;;;10.93;57.15;95340.19;5079074;28;20405;-65
2024/01/04 11:14:03;;;;;;;4.73;1.70;;;;;;;11.53;55.33;95334.63;5078037;28;20431;-67
2024/01/04 11:16:59;;;;;;;16.00;2.87;;;;;;;11.86;54.91;95341.25;5078682;28;20436;-68
2024/01/04 11:19:56;;;;;;;4.93;1.43;;;;;;;12.05;53.73;95336.47;5081131;28;20251;-67
2024/01/04 11:22:43;;;;;;;5.20;1.80;;;;;;;12.03;53.18;95350.69;5078982;28;20405;-69
2024/01/04 11:25:27;;;;;;;7.63;2.00;;;;;;;12.13;52.36;95332.50;5070069;28;20515;-66
2024/01/04 11:27:53;;;;;;;2.80;1.57;;;;;;;12.21;51.72;95338.94;5068617;28;20479;-67
2024/01/04 11:30:19;;;;;;;5.73;1.77;;;;;;;12.19;51.85;95338.19;5068016;28;20408;-67
2024/01/04 11:32:44;;;;;;;3.73;1.30;;;;;;;12.05;50.50;95336.47;5068329;28;21297;-66
2024/01/04 11:35:11;;;;;;;2.13;1.13;;;;;;;11.67;51.29;95333.72;5066593;28;20238;-65